This is the latest recevied weather packets stored in our database for station/object KROG. If no packets are shown the sender has not sent any weather packets the latest 1 day(s).
| Time | Temp. | Humidity | Pressure | Rain* | Wind** | Luminosity | Snow |
|---|---|---|---|---|---|---|---|
| 1836274586 | 21.67° C | 73% | 1017.9 hPa | - | 1.79 m/s, 190° | - | - |
| 1836274437 | 21.67° C | 73% | 1017.9 hPa | - | 1.79 m/s, 190° | - | - |
| 1836273985 | 21.67° C | 73% | 1017.9 hPa | - | 1.79 m/s, 190° | - | - |
| 1778039615 | 7.78° C | 93% | 1012.2 hPa | - | 4.47 m/s, 30° | - | - |
| 1778039023 | 7.78° C | 93% | 1012.2 hPa | - | 4.47 m/s, 30° | - | - |
| 1778038421 | 7.78° C | 93% | 1012.2 hPa | - | 4.47 m/s, 30° | - | - |
| 1778037820 | 7.78° C | 93% | 1011.9 hPa | - | 3.58 m/s, 20° | - | - |
| 1778037216 | 7.78° C | 93% | 1011.9 hPa | - | 3.58 m/s, 20° | - | - |
| 1778036615 | 7.78° C | 100% | 1011.5 hPa | - | 4.02 m/s, 30° | - | - |
| 1778036016 | 7.78° C | 93% | 1010.5 hPa | - | 4.47 m/s, 50° | - | - |
| 1778035416 | 7.78° C | 93% | 1010.5 hPa | - | 4.47 m/s, 50° | - | - |
| 1778034815 | 7.78° C | 93% | 1010.5 hPa | - | 4.47 m/s, 50° | - | - |
| 1778034217 | 7.78° C | 93% | 1010.5 hPa | - | 4.47 m/s, 50° | - | - |
| 1778033617 | 7.78° C | 93% | 1010.5 hPa | - | 4.47 m/s, 50° | - | - |
| 1778033018 | 7.78° C | 93% | 1010.5 hPa | - | 4.47 m/s, 50° | - | - |
| 1778032418 | 7.78° C | 93% | 1010.2 hPa | - | 6.71 m/s, 30° | - | - |
| 1778031817 | 7.78° C | 93% | 1010.2 hPa | - | 6.71 m/s, 30° | - | - |
| 1778031217 | 7.78° C | 93% | 1010.2 hPa | - | 6.71 m/s, 30° | - | - |
| 1778030616 | 7.78° C | 93% | 1010.2 hPa | - | 6.71 m/s, 30° | - | - |
| 1778030018 | 7.78° C | 93% | 1010.2 hPa | - | 6.71 m/s, 30° | - | - |
| 1778029415 | 7.78° C | 93% | 1010.2 hPa | - | 6.71 m/s, 30° | - | - |
| 1778028818 | 8.89° C | 93% | 1009.5 hPa | - | 7.6 m/s, 30° | - | - |
| 1778028216 | 8.89° C | 93% | 1009.5 hPa | - | 7.6 m/s, 30° | - | - |
| 1778027616 | 8.89° C | 93% | 1009.5 hPa | - | 7.6 m/s, 30° | - | - |
| 1778027015 | 8.89° C | 93% | 1009.5 hPa | - | 7.6 m/s, 30° | - | - |
* Rain since midnight (hover to see other rain measurements)
** Current wind speed in m/s (hover to see current wind gust speed)